Latest Coastal Weather Observations for Smithton

IDV60701

Issued at 7:52 pm EST Monday 4 May 2026 (issued every 10 minutes, with the page automatically refreshed every 10 minutes)

About coastal observations | Map of coastal stations | Coastal observations for VIC | Marine services | Other Formats
Station Details ID: 091292 Name: SMITHTON AERODROME Lat: -40.83 Lon: 145.08 Height: 7.5 m
Data from the previous 72 hours. | See also: Recent months at Smithton
Date/Time
EST
Wind Sea
Height
m
Swell Vis
km
Cloud Weather Temp
°C
Press
MSL
hPa
Rain since
9am
mm
Dir  Spd
kts
Gust
kts
Height
m
Period
s
Dir
04/07:30pm NW 4 6 - - - - - - - 14.1 1006.0 5.2
04/07:00pm N 12 19 - - - - - - - 15.9 1006.0 5.2
04/06:30pm NNE 11 14 - - - - - - - 15.8 1006.1 5.2
04/06:00pm N 11 16 - - - - - - - 15.3 1006.0 5.2
04/05:30pm N 9 12 - - - - - - - 14.8 1006.2 5.2
04/05:00pm N 10 13 - - - - - - - 14.7 1006.2 5.2
04/04:30pm N 10 15 - - - - - - - 14.1 1006.2 5.2
04/04:00pm N 12 16 - - - - - - - 14.8 1006.2 0.6
04/03:30pm N 13 17 - - - - - - - 15.2 1006.3 0.2
04/03:00pm N 13 19 - - - - - - - 15.5 1006.5 0.2
04/02:30pm N 17 22 - - - - - - - 15.4 1006.5 0.2
04/02:00pm N 14 19 - - - - - - - 15.4 1006.7 0.2
04/01:30pm N 15 22 - - - - - - - 15.7 1006.9 0.2
04/01:00pm N 15 20 - - - - - - - 16.2 1007.2 0.2
04/12:30pm N 17 24 - - - - - - - 16.8 1007.6 0.0
04/12:00pm N 17 22 - - - - - - - 17.4 1008.0 0.0
04/11:30am N 13 19 - - - - - - - 16.9 1008.3 0.0
04/11:00am N 15 23 - - - - - - - 16.5 1008.4 0.0
04/10:30am N 15 20 - - - - - - - 16.7 1008.3 0.0
04/10:00am N 15 20 - - - - - - - 16.8 1008.4 0.0
04/09:30am N 13 18 - - - - - - - 16.6 1008.6 0.0
04/09:00am N 13 18 - - - - - - - 16.1 1008.8 22.4
04/08:30am N 11 15 - - - - - - - 15.4 1008.6 22.4
04/08:00am N 10 14 - - - - - - - 14.7 1008.6 22.4
04/07:30am N 10 14 - - - - - - - 13.9 1008.6 22.4
04/07:00am N 9 11 - - - - - - - 13.5 1008.5 22.4
04/06:30am N 6 10 - - - - - - - 12.5 1008.5 22.4
04/06:00am N 3 5 - - - - - - - 9.1 1008.7 22.4
04/05:30am NNW 4 6 - - - - - - - 10.7 1008.6 22.4
04/05:00am N 4 6 - - - - - - - 9.6 1008.7 22.4
04/04:30am N 5 6 - - - - - - - 10.5 1008.6 22.4
04/04:00am N 3 6 - - - - - - - 8.9 1008.7 22.4
04/03:30am E 4 5 - - - - - - - 8.7 1009.0 22.4
04/03:00am ESE 4 5 - - - - - - - 10.0 1009.2 22.4
04/02:30am ENE 4 5 - - - - - - - 11.1 1009.5 22.4
04/02:00am ENE 5 6 - - - - - - - 10.3 1009.7 22.4
04/01:30am E 3 6 - - - - - - - 8.6 1009.8 22.4
04/01:00am ESE 3 4 - - - - - - - 8.1 1009.8 22.4
04/12:30am WNW 2 4 - - - - - - - 8.1 1009.9 22.4
04/12:00am CALM 0 0 - - - - - - - 8.3 1009.8 22.4
 
Date/Time
EST
Wind Sea
Height
m
Swell Vis
km
Cloud Weather Temp
°C
Press
MSL
hPa
Rain since
9am
mm
Dir  Spd
kts
Gust
kts
Height
m
Period
s
Dir
03/11:30pm CALM 0 0 - - - - - - - 7.8 1010.0 22.4
03/11:00pm CALM 0 0 - - - - - - - 7.6 1010.3 22.4
03/10:30pm CALM 0 0 - - - - - - - 8.0 1010.9 22.4
03/10:00pm CALM 0 3 - - - - - - - 7.9 1011.0 22.4
03/09:30pm CALM 0 0 - - - - - - - 7.9 1010.6 22.4
03/09:00pm CALM 0 0 - - - - - - - 8.1 1011.0 22.4
03/08:30pm SSW 3 5 - - - - - - - 8.7 1010.8 22.4
03/08:00pm CALM 0 0 - - - - - - - 8.7 1010.4 22.4
03/07:30pm CALM 0 0 - - - - - - - 10.1 1010.4 22.4
03/07:00pm CALM 0 0 - - - - - - - 10.8 1010.2 22.4
03/06:30pm CALM 0 1 - - - - - - - 10.9 1009.7 22.2
03/06:00pm ESE 5 5 - - - - - - - 12.0 1009.3 22.2
03/05:30pm WNW 5 6 - - - - - - - 14.1 1009.2 22.2
03/05:00pm WNW 7 11 - - - - - - - 15.0 1008.9 22.2
03/04:30pm NW 13 19 - - - - - - - 15.8 1008.8 22.2
03/04:00pm NNE 15 21 - - - - - - - 17.0 1008.5 22.2
03/03:30pm NNE 13 18 - - - - - - - 16.7 1008.5 21.4
03/03:00pm NE 12 17 - - - - - - - 16.9 1008.5 21.0
03/02:30pm NE 14 20 - - - - - - - 16.9 1008.8 21.0
03/02:00pm NNE 14 21 - - - - - - - 16.5 1008.7 21.0
03/01:30pm NE 17 23 - - - - - - - 16.5 1009.0 12.6
03/01:01pm NE 15 29 - - - - - - - 16.5 1009.5 9.8
03/01:00pm NE 14 29 - - - - - - - 16.5 1009.5 9.6
03/12:30pm ENE 14 18 - - - - - - - 16.3 1009.7 6.2
03/12:26pm ENE 15 20 - - - - - - - 16.3 1009.8 5.8
03/12:16pm ENE 15 21 - - - - - - - 16.4 1009.3 3.8
03/12:00pm ENE 13 20 - - - - - - Thunderstorm 16.5 1009.2 1.2
03/11:57am ENE 13 20 - - - - - - - 16.5 1009.2 1.2
03/11:47am ENE 16 23 - - - - - - - 16.5 1009.3 1.2
03/11:30am ENE 18 22 - - - - - - - 16.6 1009.6 0.8
03/11:00am ENE 16 23 - - - - - - - 16.9 1010.4 0.4
03/10:30am ENE 15 20 - - - - - - - 17.0 1010.9 0.4
03/10:00am ENE 17 25 - - - - - - - 16.6 1010.9 0.4
03/09:30am ENE 16 21 - - - - - - - 16.2 1011.7 0.4
03/09:00am ENE 17 23 - - - - - - Recent precip. 16.1 1012.1 11.8
03/08:30am ENE 13 16 - - - - - - - 16.2 1012.8 11.4
03/08:00am ENE 12 17 - - - - - - - 16.1 1012.9 10.4
03/07:30am ENE 13 18 - - - - - - - 16.0 1013.0 8.8
03/07:00am ENE 12 17 - - - - - - - 16.0 1012.6 6.8
03/06:30am ENE 9 13 - - - - - - - 15.9 1012.2 5.6
03/06:00am E 10 14 - - - - - - - 15.8 1012.2 4.8
03/05:30am E 9 13 - - - - - - - 15.7 1012.4 4.8
03/05:00am E 10 14 - - - - - - - 15.9 1012.4 4.8
03/04:30am E 10 13 - - - - - - - 16.0 1012.8 4.4
03/04:00am E 11 14 - - - - - - - 16.2 1012.9 3.8
03/03:30am ENE 11 15 - - - - - - - 16.2 1013.5 3.0
03/03:00am ENE 8 10 - - - - - - Rain 16.1 1013.7 1.8
03/02:30am ENE 10 14 - - - - - - - 16.6 1014.0 1.4
03/02:00am E 10 13 - - - - - - - 16.5 1013.9 0.6
03/01:30am E 7 9 - - - - - - - 16.2 1014.3 0.6
03/01:00am E 6 7 - - - - - - - 16.4 1014.3 0.6
03/12:30am ENE 9 13 - - - - - - - 17.3 1014.3 0.0
03/12:00am ENE 8 13 - - - - - - - 17.4 1014.7 0.0
 
Date/Time
EST
Wind Sea
Height
m
Swell Vis
km
Cloud Weather Temp
°C
Press
MSL
hPa
Rain since
9am
mm
Dir  Spd
kts
Gust
kts
Height
m
Period
s
Dir
02/11:30pm NE 11 16 - - - - - - - 18.6 1015.1 0.0
02/11:00pm NE 11 16 - - - - - - - 18.8 1015.1 0.0
02/10:30pm ENE 13 17 - - - - - - - 19.5 1014.9 0.0
02/10:00pm ENE 14 21 - - - - - - - 18.9 1014.8 0.0
02/09:30pm ENE 13 16 - - - - - - - 18.3 1015.0 0.0
02/09:00pm ENE 13 18 - - - - - - - 17.9 1014.9 0.0
02/08:30pm ENE 13 17 - - - - - - - 17.6 1014.8 0.0
02/08:00pm ENE 13 17 - - - - - - - 17.5 1014.9 0.0
02/07:30pm ENE 13 19 - - - - - - - 17.4 1015.0 0.0
02/07:00pm ENE 13 18 - - - - - - - 17.6 1014.9 0.0
02/06:30pm ENE 13 16 - - - - - - - 17.5 1014.8 0.0
02/06:00pm ENE 14 19 - - - - - - - 17.6 1014.4 0.0
02/05:30pm ENE 13 19 - - - - - - - 17.8 1014.5 0.0
02/05:00pm ENE 12 17 - - - - - - - 18.3 1014.6 0.0
02/04:30pm ENE 12 17 - - - - - - - 18.7 1014.7 0.0
02/04:00pm ENE 12 17 - - - - - - - 18.6 1015.0 0.0
02/03:30pm ENE 13 17 - - - - - - - 18.4 1015.2 0.0
02/03:00pm ENE 13 17 - - - - - - - 18.4 1015.4 0.0
02/02:30pm ENE 13 18 - - - - - - - 18.5 1015.7 0.0
02/02:00pm ENE 12 17 - - - - - - - 18.7 1015.7 0.0
02/01:30pm ENE 15 21 - - - - - - - 18.8 1015.8 0.0
02/01:00pm ENE 15 21 - - - - - - - 19.3 1016.3 0.0
02/12:30pm ENE 15 19 - - - - - - - 19.4 1016.7 0.0
02/12:00pm ENE 15 22 - - - - - - - 19.3 1017.3 0.0
02/11:30am ENE 16 21 - - - - - - - 19.7 1017.7 0.0
02/11:00am ENE 15 21 - - - - - - - 18.7 1018.0 0.0
02/10:30am ENE 16 21 - - - - - - - 20.0 1018.0 0.0
02/10:00am ENE 18 23 - - - - - - - 19.3 1018.3 0.0
02/09:30am ENE 16 23 - - - - - - - 18.2 1018.5 0.0
02/09:00am E 15 22 - - - - - - - 18.0 1018.7 0.0
02/08:30am ENE 16 21 - - - - - - - 17.5 1018.7 0.0
02/08:00am E 15 23 - - - - - - - 17.0 1018.5 0.0
02/07:30am E 14 19 - - - - - - - 16.7 1018.4 0.0
02/07:00am E 15 19 - - - - - - - 16.6 1018.3 0.0
02/06:30am E 13 20 - - - - - - - 16.5 1018.4 0.0
02/06:00am E 11 16 - - - - - - - 16.7 1018.5 0.0
02/05:30am ENE 10 14 - - - - - - - 17.0 1018.7 0.0
02/05:00am E 10 13 - - - - - - - 16.8 1018.7 0.0
02/04:30am E 9 13 - - - - - - - 16.8 1018.7 0.0
02/04:00am E 11 13 - - - - - - - 16.6 1018.9 0.0
02/03:30am E 7 10 - - - - - - - 16.1 1019.1 0.0
02/03:00am E 8 13 - - - - - - - 16.9 1019.2 0.0
02/02:30am E 8 14 - - - - - - - 18.2 1019.4 0.0
02/02:00am ENE 7 12 - - - - - - - 17.6 1019.9 0.0
02/01:30am ENE 9 13 - - - - - - - 17.6 1020.1 0.0
02/01:00am ENE 9 11 - - - - - - - 18.2 1020.2 0.0
02/12:30am ENE 9 13 - - - - - - - 18.7 1020.4 0.0
02/12:00am ENE 11 17 - - - - - - - 18.4 1020.6 0.0
 
Date/Time
EST
Wind Sea
Height
m
Swell Vis
km
Cloud Weather Temp
°C
Press
MSL
hPa
Rain since
9am
mm
Dir  Spd
kts
Gust
kts
Height
m
Period
s
Dir
01/11:30pm E 10 12 - - - - - - - 17.1 1020.8 0.0
01/11:00pm E 9 12 - - - - - - - 16.9 1021.1 0.0
01/10:30pm E 10 12 - - - - - - - 16.7 1021.4 0.0
01/10:00pm ENE 9 12 - - - - - - - 17.1 1021.5 0.0
01/09:30pm E 9 12 - - - - - - - 17.0 1021.6 0.0
01/09:00pm ENE 8 12 - - - - - - - 17.0 1021.6 0.0
01/08:30pm E 9 12 - - - - - - - 16.7 1021.6 0.0
01/08:00pm E 10 12 - - - - - - - 16.6 1021.5 0.0

Other formats

Comma delimited format used in spreadsheet applications
http://www.bom.gov.au/fwo/IDV60701/IDV60701.94953.axf

JavaScript Object Notation format (JSON) in row-major order
http://www.bom.gov.au/fwo/IDV60701/IDV60701.94953.json

Data quality

Most of these data are generated automatically and are frequently updated. Quality checks on data are not normally performed. It is possible for incorrect values to appear. Refer to information at About Latest Weather Observations and please check the disclaimer before using these data.